Time;durP1;ratioP1;P1;durP2;ratioP2;P2;SDS_P1;SDS_P2;PMS_P1;PMS_P2;Temp;Humidity;BMP_temperature;BMP_pressure;BME280_temperature;BME280_humidity;BME280_pressure;Samples;Min_cycle;Max_cycle;Signal;HPM_P1;HPM_P2
2022/12/21 00:00:54;;;;;;;53.20;17.73;;;;;;;;;;5064790;27;83008;-54
2022/12/21 00:03:23;;;;;;;44.17;15.60;;;;;;;;;;5064228;27;83186;-54
2022/12/21 00:05:51;;;;;;;32.93;13.70;;;;;;;;;;5064349;27;82736;-54
2022/12/21 00:08:19;;;;;;;36.10;14.13;;;;;;;;;;5064364;27;82984;-54
2022/12/21 00:10:48;;;;;;;41.27;13.27;;;;;;;;;;5064428;27;83868;-54
2022/12/21 00:13:17;;;;;;;29.00;11.83;;;;;;;;;;5064442;27;83073;-54
2022/12/21 00:15:47;;;;;;;41.10;13.07;;;;;;;;;;5064425;27;82973;-54
2022/12/21 00:18:15;;;;;;;32.37;12.17;;;;;;;;;;5059389;27;84189;-54
2022/12/21 00:20:43;;;;;;;22.73;10.40;;;;;;;;;;5050384;27;83814;-54
2022/12/21 00:23:12;;;;;;;36.03;10.67;;;;;;;;;;5063684;27;82619;-54
2022/12/21 00:25:40;;;;;;;26.50;8.73;;;;;;;;;;5064192;27;83118;-54
2022/12/21 00:28:08;;;;;;;21.07;9.47;;;;;;;;;;5065113;27;82961;-54
2022/12/21 00:30:37;;;;;;;22.13;8.33;;;;;;;;;;5065621;27;82648;-54
2022/12/21 00:33:06;;;;;;;24.80;7.97;;;;;;;;;;5064821;27;81974;-54
2022/12/21 00:35:35;;;;;;;28.20;10.03;;;;;;;;;;5063220;27;82578;-54
2022/12/21 00:38:03;;;;;;;27.40;9.33;;;;;;;;;;5046059;27;83772;-54
2022/12/21 00:40:31;;;;;;;18.80;6.87;;;;;;;;;;5044659;27;84065;-54
2022/12/21 00:42:59;;;;;;;18.37;8.63;;;;;;;;;;5044342;27;82242;-54
2022/12/21 00:45:28;;;;;;;13.60;6.43;;;;;;;;;;5044671;28;82638;-54
2022/12/21 00:47:56;;;;;;;20.27;8.90;;;;;;;;;;5049392;27;82379;-53
2022/12/21 00:50:26;;;;;;;19.00;6.10;;;;;;;;;;5077076;27;83124;-54
2022/12/21 00:52:54;;;;;;;23.33;6.57;;;;;;;;;;5072874;27;81955;-54
2022/12/21 00:55:23;;;;;;;15.43;6.03;;;;;;;;;;5064991;27;82973;-53
2022/12/21 00:57:51;;;;;;;13.00;6.47;;;;;;;;;;5064907;27;83260;-54
2022/12/21 01:00:20;;;;;;;8.77;5.53;;;;;;;;;;5064287;27;83690;-53
2022/12/21 01:02:48;;;;;;;11.50;5.97;;;;;;;;;;5064144;27;82949;-54
2022/12/21 01:05:17;;;;;;;15.37;5.43;;;;;;;;;;5064636;27;83955;-54
2022/12/21 01:07:46;;;;;;;13.03;4.87;;;;;;;;;;5084832;27;84105;-53
2022/12/21 01:10:15;;;;;;;10.70;4.43;;;;;;;;;;5085143;27;83460;-54
2022/12/21 01:12:43;;;;;;;14.07;4.87;;;;;;;;;;5084996;27;81964;-54
2022/12/21 01:15:12;;;;;;;11.07;4.80;;;;;;;;;;5082076;27;82381;-54
2022/12/21 01:17:40;;;;;;;10.00;4.63;;;;;;;;;;5065769;27;83434;-54
2022/12/21 01:20:09;;;;;;;9.27;4.77;;;;;;;;;;5048283;27;83856;-53
2022/12/21 01:22:39;;;;;;;11.03;5.80;;;;;;;;;;5062691;27;82035;-53
2022/12/21 01:25:09;;;;;;;9.87;5.13;;;;;;;;;;5064270;27;82244;-53
2022/12/21 01:27:37;;;;;;;10.37;5.80;;;;;;;;;;5063464;27;84862;-54
2022/12/21 01:30:06;;;;;;;15.50;5.53;;;;;;;;;;5064637;27;83455;-54
2022/12/21 01:32:35;;;;;;;9.07;5.33;;;;;;;;;;5064705;27;81870;-54
2022/12/21 01:35:03;;;;;;;15.40;5.40;;;;;;;;;;5064258;27;82743;-53
2022/12/21 01:37:31;;;;;;;11.73;5.17;;;;;;;;;;5063596;27;82926;-54
2022/12/21 01:40:00;;;;;;;10.37;5.00;;;;;;;;;;5063343;27;83882;-54
2022/12/21 01:42:29;;;;;;;10.27;5.00;;;;;;;;;;5064240;27;81835;-54
2022/12/21 01:45:02;;;;;;;7.57;4.60;;;;;;;;;;5064632;27;82677;-53
2022/12/21 01:47:32;;;;;;;8.23;4.37;;;;;;;;;;5064074;27;83018;-53
2022/12/21 01:50:01;;;;;;;14.40;4.53;;;;;;;;;;5064203;27;82670;-53
2022/12/21 01:52:30;;;;;;;10.57;4.80;;;;;;;;;;5062872;27;82963;-54
2022/12/21 01:55:00;;;;;;;8.83;4.47;;;;;;;;;;5063973;27;81890;-54
2022/12/21 01:57:32;;;;;;;7.03;5.07;;;;;;;;;;5064417;27;84010;-53
2022/12/21 02:00:00;;;;;;;6.63;3.90;;;;;;;;;;5064148;27;83415;-54
2022/12/21 02:02:29;;;;;;;7.60;3.77;;;;;;;;;;5064360;27;81845;-53
2022/12/21 02:04:58;;;;;;;6.90;3.63;;;;;;;;;;5063781;27;83301;-53
2022/12/21 02:07:26;;;;;;;5.70;3.87;;;;;;;;;;5063509;27;83787;-53
2022/12/21 02:09:55;;;;;;;12.07;4.50;;;;;;;;;;5064078;27;82828;-53
2022/12/21 02:12:23;;;;;;;8.20;4.00;;;;;;;;;;5063835;27;81910;-53
2022/12/21 02:14:53;;;;;;;6.73;3.30;;;;;;;;;;5063679;27;82647;-54
2022/12/21 02:17:22;;;;;;;6.93;3.27;;;;;;;;;;5063119;27;84908;-53
2022/12/21 02:19:57;;;;;;;7.13;2.60;;;;;;;;;;5064235;27;82080;-54
2022/12/21 02:22:28;;;;;;;4.20;3.00;;;;;;;;;;5063788;27;81823;-54
2022/12/21 02:25:03;;;;;;;7.20;3.37;;;;;;;;;;5063606;27;82595;-53
2022/12/21 02:27:47;;;;;;;4.27;2.67;;;;;;;;;;5063756;27;83014;-54
2022/12/21 02:30:17;;;;;;;5.20;3.20;;;;;;;;;;5057326;27;82115;-54
2022/12/21 02:32:57;;;;;;;4.43;2.60;;;;;;;;;;5056910;27;83434;-53
2022/12/21 02:35:29;;;;;;;6.60;2.40;;;;;;;;;;5055896;27;82919;-54
2022/12/21 02:37:59;;;;;;;5.40;2.43;;;;;;;;;;5063153;27;81962;-54
2022/12/21 02:40:28;;;;;;;5.80;2.97;;;;;;;;;;5063379;27;82535;-54
2022/12/21 02:45:45;;;;;;;3.80;2.03;;;;;;;;;;5066371;27;83805;-54
2022/12/21 02:48:16;;;;;;;4.20;2.30;;;;;;;;;;5066537;27;82927;-54
2022/12/21 02:50:45;;;;;;;4.40;2.40;;;;;;;;;;5066646;27;82979;-54
2022/12/21 02:53:14;;;;;;;3.07;2.00;;;;;;;;;;5065694;27;81987;-54
2022/12/21 02:55:42;;;;;;;3.07;2.00;;;;;;;;;;5066713;27;83803;-54
2022/12/21 02:58:14;;;;;;;4.33;2.37;;;;;;;;;;5066714;27;84099;-53
2022/12/21 03:00:48;;;;;;;3.80;2.00;;;;;;;;;;5066813;27;82821;-53
2022/12/21 03:06:18;;;;;;;3.70;1.83;;;;;;;;;;5017878;27;83967;-54
2022/12/21 03:08:49;;;;;;;3.10;2.10;;;;;;;;;;5065685;27;83751;-54
2022/12/21 03:11:18;;;;;;;2.63;2.30;;;;;;;;;;5066319;27;84119;-54
2022/12/21 03:13:48;;;;;;;4.83;2.27;;;;;;;;;;5066204;27;83328;-54
2022/12/21 03:16:17;;;;;;;5.73;2.47;;;;;;;;;;5065755;27;83989;-54
2022/12/21 03:18:49;;;;;;;5.03;2.57;;;;;;;;;;5066309;27;82802;-53
2022/12/21 03:21:18;;;;;;;4.83;1.90;;;;;;;;;;5066514;27;82220;-54
2022/12/21 03:23:47;;;;;;;3.60;2.30;;;;;;;;;;5065660;27;81933;-53
2022/12/21 03:26:16;;;;;;;2.53;1.80;;;;;;;;;;5066966;27;82947;-54
2022/12/21 03:28:45;;;;;;;3.73;1.70;;;;;;;;;;5066531;27;83186;-54
2022/12/21 03:31:14;;;;;;;2.53;2.03;;;;;;;;;;5065784;27;82825;-54
2022/12/21 03:33:43;;;;;;;3.50;1.77;;;;;;;;;;5065437;27;83925;-53
2022/12/21 03:36:14;;;;;;;4.10;1.87;;;;;;;;;;5065956;27;82577;-54
2022/12/21 03:38:46;;;;;;;2.03;1.53;;;;;;;;;;5066083;27;84087;-53
2022/12/21 03:41:16;;;;;;;1.93;1.70;;;;;;;;;;5065741;27;82894;-54
2022/12/21 03:43:44;;;;;;;3.97;2.33;;;;;;;;;;5065877;27;81814;-54
2022/12/21 03:46:14;;;;;;;2.70;1.50;;;;;;;;;;5065984;27;83837;-53
2022/12/21 03:48:42;;;;;;;4.07;2.10;;;;;;;;;;5064926;27;82836;-54
2022/12/21 03:51:11;;;;;;;2.83;1.50;;;;;;;;;;5065590;27;83075;-54
2022/12/21 03:53:41;;;;;;;2.83;1.57;;;;;;;;;;5064772;27;81881;-54
2022/12/21 03:56:10;;;;;;;2.50;1.37;;;;;;;;;;5051978;27;82667;-53
2022/12/21 03:58:38;;;;;;;1.90;1.70;;;;;;;;;;5065427;27;82850;-53
2022/12/21 04:01:10;;;;;;;3.43;1.90;;;;;;;;;;5065167;27;83469;-54
2022/12/21 04:03:39;;;;;;;2.10;1.07;;;;;;;;;;5065447;27;81889;-54
2022/12/21 04:06:09;;;;;;;3.17;1.50;;;;;;;;;;5065412;27;83798;-54
2022/12/21 04:08:37;;;;;;;3.13;1.70;;;;;;;;;;5065558;27;83098;-54
2022/12/21 04:12:35;;;;;;;2.17;1.80;;;;;;;;;;5065627;27;83790;-53
2022/12/21 04:13:54;;;;;;;3.70;1.43;;;;;;;;;;5064841;27;81977;-53
2022/12/21 04:16:22;;;;;;;4.30;1.70;;;;;;;;;;5066033;27;83682;-53
2022/12/21 04:21:37;;;;;;;2.10;1.60;;;;;;;;;;5065500;27;81876;-53
2022/12/21 04:29:38;;;;;;;2.40;1.40;;;;;;;;;;5065122;27;83080;-54
2022/12/21 04:32:06;;;;;;;2.00;1.80;;;;;;;;;;5065196;27;83964;-54
2022/12/21 04:34:34;;;;;;;1.93;1.50;;;;;;;;;;5064954;27;81848;-54
2022/12/21 04:39:49;;;;;;;2.03;1.10;;;;;;;;;;5065060;27;83175;-53
2022/12/21 04:42:18;;;;;;;3.87;1.60;;;;;;;;;;5065657;27;82843;-54
2022/12/21 04:44:47;;;;;;;1.40;1.30;;;;;;;;;;5065602;27;81985;-54
2022/12/21 04:47:15;;;;;;;1.60;1.30;;;;;;;;;;5064404;27;82677;-53
2022/12/21 04:49:43;;;;;;;1.87;1.33;;;;;;;;;;5064648;27;82879;-54
2022/12/21 04:52:12;;;;;;;2.77;1.57;;;;;;;;;;5064422;27;82562;-53
2022/12/21 04:54:40;;;;;;;1.67;1.57;;;;;;;;;;5064970;27;81829;-53
2022/12/21 04:57:08;;;;;;;1.90;1.47;;;;;;;;;;5059180;27;82732;-53
2022/12/21 04:59:38;;;;;;;3.50;1.23;;;;;;;;;;5064137;27;83472;-53
2022/12/21 05:02:06;;;;;;;2.63;1.67;;;;;;;;;;5064472;27;82025;-53
2022/12/21 05:04:35;;;;;;;1.60;1.20;;;;;;;;;;5064901;27;82032;-53
2022/12/21 05:07:03;;;;;;;1.20;0.90;;;;;;;;;;5064337;27;82670;-53
2022/12/21 05:09:31;;;;;;;1.93;1.20;;;;;;;;;;5064638;27;83199;-53
2022/12/21 05:12:00;;;;;;;2.83;1.30;;;;;;;;;;5064770;27;81990;-53
2022/12/21 05:14:28;;;;;;;1.30;1.20;;;;;;;;;;5063928;27;82788;-53
2022/12/21 05:16:57;;;;;;;1.80;1.00;;;;;;;;;;5064223;27;81924;-52
2022/12/21 05:19:26;;;;;;;1.50;1.30;;;;;;;;;;5064789;27;83795;-52
2022/12/21 05:21:54;;;;;;;1.57;1.20;;;;;;;;;;5063675;27;82941;-53
2022/12/21 05:24:22;;;;;;;2.37;1.20;;;;;;;;;;5064412;27;82001;-53
2022/12/21 05:26:51;;;;;;;2.50;1.30;;;;;;;;;;5064544;27;81824;-52
2022/12/21 05:29:19;;;;;;;1.73;1.30;;;;;;;;;;5048305;27;84124;-53
2022/12/21 05:31:48;;;;;;;2.57;1.43;;;;;;;;;;5065132;27;83312;-53
2022/12/21 05:34:18;;;;;;;1.43;1.03;;;;;;;;;;5064173;27;81976;-52
2022/12/21 05:36:46;;;;;;;0.90;0.90;;;;;;;;;;5064244;27;82624;-53
2022/12/21 05:39:14;;;;;;;2.60;1.23;;;;;;;;;;5063755;27;84130;-53
2022/12/21 05:41:43;;;;;;;1.97;1.37;;;;;;;;;;5064528;27;85753;-53
2022/12/21 05:44:11;;;;;;;1.50;1.40;;;;;;;;;;5064221;27;81991;-53
2022/12/21 05:46:39;;;;;;;2.67;1.30;;;;;;;;;;5063600;27;84071;-53
2022/12/21 05:49:08;;;;;;;1.20;1.10;;;;;;;;;;5062141;27;84068;-53
2022/12/21 05:51:37;;;;;;;1.90;1.47;;;;;;;;;;5063378;27;82443;-53
2022/12/21 05:54:06;;;;;;;1.50;1.33;;;;;;;;;;5063072;27;82942;-53
2022/12/21 05:56:35;;;;;;;2.03;1.40;;;;;;;;;;5064195;27;82716;-53
2022/12/21 05:59:03;;;;;;;3.67;1.77;;;;;;;;;;5063433;27;83193;-53
2022/12/21 06:01:31;;;;;;;1.50;1.07;;;;;;;;;;5063860;27;83412;-53
2022/12/21 06:04:00;;;;;;;1.50;1.40;;;;;;;;;;5063724;27;83176;-54
2022/12/21 06:06:28;;;;;;;1.70;1.17;;;;;;;;;;5063458;27;82920;-53
2022/12/21 06:08:58;;;;;;;2.20;1.20;;;;;;;;;;5063805;27;84122;-53
2022/12/21 06:11:27;;;;;;;1.47;0.93;;;;;;;;;;5063423;27;82577;-53
2022/12/21 06:13:55;;;;;;;2.93;1.50;;;;;;;;;;5063418;27;81875;-53
2022/12/21 06:16:24;;;;;;;2.23;0.87;;;;;;;;;;5063949;27;82965;-53
2022/12/21 06:18:52;;;;;;;1.17;1.07;;;;;;;;;;5063715;27;83394;-53
2022/12/21 06:21:21;;;;;;;1.30;1.20;;;;;;;;;;5062958;27;81791;-53
2022/12/21 06:23:49;;;;;;;1.97;1.30;;;;;;;;;;5067587;27;81840;-53
2022/12/21 06:26:19;;;;;;;1.40;1.20;;;;;;;;;;5066884;27;83031;-54
2022/12/21 06:28:48;;;;;;;1.80;1.57;;;;;;;;;;5066386;27;83629;-53
2022/12/21 06:31:17;;;;;;;1.47;1.27;;;;;;;;;;5050327;27;84842;-54
2022/12/21 06:33:45;;;;;;;2.63;1.57;;;;;;;;;;5067085;27;81914;-53
2022/12/21 06:36:14;;;;;;;2.00;1.10;;;;;;;;;;5066267;27;82877;-54
2022/12/21 06:38:42;;;;;;;1.70;1.50;;;;;;;;;;5067016;27;81990;-53
2022/12/21 06:41:11;;;;;;;0.80;0.80;;;;;;;;;;5046667;28;81951;-53
2022/12/21 06:43:41;;;;;;;2.07;1.20;;;;;;;;;;5052522;27;81841;-52
2022/12/21 06:46:09;;;;;;;2.00;1.10;;;;;;;;;;5072473;27;81756;-53
2022/12/21 06:48:38;;;;;;;1.87;1.33;;;;;;;;;;5085784;27;83119;-53
2022/12/21 06:51:07;;;;;;;2.20;1.40;;;;;;;;;;5083388;27;82940;-53
2022/12/21 06:53:36;;;;;;;2.57;1.50;;;;;;;;;;5084243;27;82927;-53
2022/12/21 06:56:05;;;;;;;1.33;1.20;;;;;;;;;;5080092;27;83869;-54
2022/12/21 06:58:34;;;;;;;1.57;1.13;;;;;;;;;;5066746;27;81933;-53
2022/12/21 07:01:07;;;;;;;1.73;1.63;;;;;;;;;;5085335;27;82813;-53
2022/12/21 07:03:36;;;;;;;1.17;1.07;;;;;;;;;;5087030;27;82061;-53
2022/12/21 07:06:11;;;;;;;2.20;1.30;;;;;;;;;;5086554;27;84069;-53
2022/12/21 07:08:39;;;;;;;1.30;1.20;;;;;;;;;;5086676;27;83102;-53
2022/12/21 07:11:08;;;;;;;1.27;0.90;;;;;;;;;;5086714;27;83805;-53
2022/12/21 07:13:37;;;;;;;2.23;1.30;;;;;;;;;;5086909;27;82039;-53
2022/12/21 07:16:06;;;;;;;2.33;1.50;;;;;;;;;;5067021;27;83889;-53
2022/12/21 07:18:36;;;;;;;3.53;1.43;;;;;;;;;;5066223;27;85033;-54
2022/12/21 07:21:06;;;;;;;2.53;1.47;;;;;;;;;;5068934;27;83892;-53
2022/12/21 07:23:35;;;;;;;1.97;1.17;;;;;;;;;;5077368;27;82005;-54
2022/12/21 07:26:06;;;;;;;2.27;1.10;;;;;;;;;;5045780;27;82761;-54
2022/12/21 07:28:37;;;;;;;5.03;1.10;;;;;;;;;;5053937;27;83108;-54
2022/12/21 07:31:05;;;;;;;2.47;1.10;;;;;;;;;;5066388;27;83933;-53
2022/12/21 07:33:33;;;;;;;4.67;1.57;;;;;;;;;;5066330;27;82046;-54
2022/12/21 07:36:04;;;;;;;2.83;1.27;;;;;;;;;;5066375;27;84021;-54
2022/12/21 07:38:32;;;;;;;2.80;1.33;;;;;;;;;;5066356;27;84451;-55
2022/12/21 07:41:01;;;;;;;1.93;1.20;;;;;;;;;;5066419;27;83938;-55
2022/12/21 07:43:29;;;;;;;1.80;1.37;;;;;;;;;;5082939;27;84075;-56
2022/12/21 07:45:57;;;;;;;1.30;1.20;;;;;;;;;;5070148;27;83891;-56
2022/12/21 07:48:26;;;;;;;7.50;1.67;;;;;;;;;;5085855;27;83179;-55
2022/12/21 07:50:58;;;;;;;2.57;1.37;;;;;;;;;;5076931;27;82938;-55
2022/12/21 07:53:28;;;;;;;1.07;0.97;;;;;;;;;;5084520;27;81838;-54
2022/12/21 07:55:59;;;;;;;1.50;1.03;;;;;;;;;;5084409;27;83121;-54
2022/12/21 07:58:28;;;;;;;2.53;1.37;;;;;;;;;;5069279;27;82922;-54
2022/12/21 08:00:56;;;;;;;1.27;1.10;;;;;;;;;;5065997;27;81907;-55
2022/12/21 08:03:32;;;;;;;0.97;0.93;;;;;;;;;;5066288;27;81895;-55
2022/12/21 08:06:01;;;;;;;1.37;0.90;;;;;;;;;;5075514;27;83605;-54
2022/12/21 08:08:30;;;;;;;3.20;1.30;;;;;;;;;;5085244;27;84076;-54
2022/12/21 08:10:59;;;;;;;1.80;1.13;;;;;;;;;;5084303;27;83958;-55
2022/12/21 08:13:27;;;;;;;1.10;1.00;;;;;;;;;;5065677;27;82044;-54
2022/12/21 08:15:59;;;;;;;1.40;1.30;;;;;;;;;;5067298;27;82828;-53
2022/12/21 08:18:28;;;;;;;1.23;1.13;;;;;;;;;;5069087;27;84151;-54
2022/12/21 08:20:56;;;;;;;2.63;1.17;;;;;;;;;;5078851;27;82732;-54
2022/12/21 08:23:25;;;;;;;1.43;1.10;;;;;;;;;;5068031;27;81890;-53
2022/12/21 08:25:54;;;;;;;1.67;0.97;;;;;;;;;;5066189;27;83989;-54
2022/12/21 08:28:22;;;;;;;1.67;1.20;;;;;;;;;;5065046;27;84228;-54
2022/12/21 08:30:51;;;;;;;1.10;1.00;;;;;;;;;;5065060;27;82848;-54
2022/12/21 08:33:19;;;;;;;2.30;1.03;;;;;;;;;;5065872;27;82928;-53
2022/12/21 08:35:48;;;;;;;2.20;1.37;;;;;;;;;;5057312;27;85132;-53
2022/12/21 08:38:16;;;;;;;1.80;1.13;;;;;;;;;;5065174;27;83092;-54
2022/12/21 08:41:06;;;;;;;1.07;0.97;;;;;;;;;;5047959;27;81851;-53
2022/12/21 08:43:35;;;;;;;2.23;1.20;;;;;;;;;;5064706;27;82035;-53
2022/12/21 08:46:04;;;;;;;1.77;0.97;;;;;;;;;;5064885;27;82843;-53
2022/12/21 08:48:32;;;;;;;0.90;0.73;;;;;;;;;;5064396;27;83032;-56
2022/12/21 08:51:01;;;;;;;1.60;1.00;;;;;;;;;;5067265;27;82764;-55
2022/12/21 08:53:29;;;;;;;2.97;1.33;;;;;;;;;;5064614;27;81956;-54
2022/12/21 08:55:57;;;;;;;2.47;1.30;;;;;;;;;;5067611;27;82801;-54
2022/12/21 08:58:27;;;;;;;1.33;0.90;;;;;;;;;;5080874;27;84213;-55
2022/12/21 09:00:55;;;;;;;1.13;1.03;;;;;;;;;;5075245;27;83710;-55
2022/12/21 09:03:26;;;;;;;0.60;0.60;;;;;;;;;;5065801;27;82043;-55
2022/12/21 09:05:55;;;;;;;1.57;1.47;;;;;;;;;;5075829;27;84034;-55
2022/12/21 09:08:27;;;;;;;1.63;1.00;;;;;;;;;;5067791;27;84181;-55
2022/12/21 09:11:00;;;;;;;3.60;0.80;;;;;;;;;;5074956;27;82192;-55
2022/12/21 09:13:30;;;;;;;1.27;1.17;;;;;;;;;;5064841;27;81695;-54
2022/12/21 09:15:58;;;;;;;1.00;0.90;;;;;;;;;;5065219;27;82674;-55
2022/12/21 09:18:26;;;;;;;1.10;1.00;;;;;;;;;;5064487;27;83004;-55
2022/12/21 09:20:55;;;;;;;1.90;0.93;;;;;;;;;;5064252;27;82784;-54
2022/12/21 09:23:23;;;;;;;1.07;0.97;;;;;;;;;;5064629;27;83277;-55
2022/12/21 09:25:51;;;;;;;1.13;0.90;;;;;;;;;;5064303;27;82436;-54
2022/12/21 09:28:20;;;;;;;1.20;1.10;;;;;;;;;;5064940;27;82036;-55
2022/12/21 09:30:50;;;;;;;1.27;1.17;;;;;;;;;;5064814;27;82644;-54
2022/12/21 09:33:18;;;;;;;1.20;1.10;;;;;;;;;;5064204;27;81911;-55
2022/12/21 09:35:46;;;;;;;1.60;0.90;;;;;;;;;;5064073;27;86434;-54
2022/12/21 09:38:15;;;;;;;1.43;1.10;;;;;;;;;;5063782;27;82995;-55
2022/12/21 09:40:43;;;;;;;1.40;1.07;;;;;;;;;;5065867;27;82940;-55
2022/12/21 09:43:13;;;;;;;0.80;0.80;;;;;;;;;;5067873;27;82058;-55
2022/12/21 09:45:44;;;;;;;0.80;0.77;;;;;;;;;;5079430;27;82789;-54
2022/12/21 09:48:14;;;;;;;1.57;0.80;;;;;;;;;;5063311;27;83717;-54
2022/12/21 09:50:43;;;;;;;2.33;1.00;;;;;;;;;;5063963;27;83754;-55
2022/12/21 09:53:14;;;;;;;1.03;1.03;;;;;;;;;;5070556;27;81963;-54
2022/12/21 09:55:43;;;;;;;2.00;1.13;;;;;;;;;;5077438;27;81989;-55
2022/12/21 09:58:13;;;;;;;1.00;0.90;;;;;;;;;;5067891;27;83220;-55
2022/12/21 10:00:41;;;;;;;1.00;0.90;;;;;;;;;;5067828;27;82757;-55
2022/12/21 10:03:23;;;;;;;1.80;0.67;;;;;;;;;;5067177;27;82147;-54
2022/12/21 10:05:55;;;;;;;1.10;1.00;;;;;;;;;;5069108;27;81578;-54
2022/12/21 10:08:39;;;;;;;1.30;1.10;;;;;;;;;;5067074;27;83209;-55
2022/12/21 10:11:09;;;;;;;0.93;0.93;;;;;;;;;;5034046;28;84106;-55
2022/12/21 10:13:40;;;;;;;4.03;1.30;;;;;;;;;;5046758;28;82641;-54
2022/12/21 10:16:12;;;;;;;3.07;0.93;;;;;;;;;;5065774;27;85193;-55
2022/12/21 10:18:44;;;;;;;1.80;1.33;;;;;;;;;;5087935;27;81945;-55
2022/12/21 10:21:13;;;;;;;1.73;0.90;;;;;;;;;;5088221;27;83832;-57
2022/12/21 10:23:42;;;;;;;1.87;0.90;;;;;;;;;;5084370;27;82000;-54
2022/12/21 10:26:11;;;;;;;3.10;0.87;;;;;;;;;;5085656;27;82843;-54
2022/12/21 10:28:41;;;;;;;1.30;1.13;;;;;;;;;;5088230;27;83255;-55
2022/12/21 10:31:10;;;;;;;0.83;0.73;;;;;;;;;;5086505;27;82822;-55
2022/12/21 10:33:40;;;;;;;0.70;0.70;;;;;;;;;;5082773;27;81871;-55
2022/12/21 10:36:14;;;;;;;2.83;1.10;;;;;;;;;;5067172;27;82950;-54
2022/12/21 10:38:42;;;;;;;1.73;0.97;;;;;;;;;;5066864;27;85053;-55
2022/12/21 10:41:13;;;;;;;1.53;1.10;;;;;;;;;;5069322;27;84832;-55
2022/12/21 10:43:41;;;;;;;1.23;0.83;;;;;;;;;;5067123;27;81973;-54
2022/12/21 10:46:09;;;;;;;2.43;1.00;;;;;;;;;;5067095;27;82953;-55
2022/12/21 10:48:38;;;;;;;1.23;0.90;;;;;;;;;;5067213;27;83060;-55
2022/12/21 10:51:11;;;;;;;0.90;0.83;;;;;;;;;;5067134;27;83905;-54
2022/12/21 10:53:43;;;;;;;2.33;1.00;;;;;;;;;;5067262;27;81861;-55
2022/12/21 10:56:11;;;;;;;3.30;1.47;;;;;;;;;;5068156;27;83705;-54
2022/12/21 10:58:39;;;;;;;1.37;1.10;;;;;;;;;;5067026;27;83955;-54
2022/12/21 11:01:08;;;;;;;1.07;0.77;;;;;;;;;;5086675;27;83740;-55
2022/12/21 11:03:37;;;;;;;1.73;0.73;;;;;;;;;;5084736;27;82854;-54
2022/12/21 11:06:12;;;;;;;4.77;2.13;;;;;;;;;;5086555;27;82512;-54
2022/12/21 11:08:46;;;;;;;1.13;0.90;;;;;;;;;;5087040;27;82003;-55
2022/12/21 11:11:27;;;;;;;0.83;0.70;;;;;;;;;;5079372;27;83347;-55
2022/12/21 11:13:57;;;;;;;2.73;1.37;;;;;;;;;;5072294;27;82099;-55
2022/12/21 11:16:35;;;;;;;3.67;1.00;;;;;;;;;;5066334;27;82714;-55
2022/12/21 11:19:03;;;;;;;2.97;1.00;;;;;;;;;;5066174;27;84174;-55
2022/12/21 11:21:33;;;;;;;1.30;1.20;;;;;;;;;;5066040;27;83805;-55
2022/12/21 11:24:04;;;;;;;5.17;0.80;;;;;;;;;;5065878;27;81912;-55
2022/12/21 11:26:35;;;;;;;4.97;1.20;;;;;;;;;;5070665;27;82726;-55
2022/12/21 11:29:04;;;;;;;1.10;1.00;;;;;;;;;;5066553;27;83943;-55
2022/12/21 11:31:33;;;;;;;1.30;1.20;;;;;;;;;;5046227;28;83696;-57
2022/12/21 11:34:18;;;;;;;2.10;1.20;;;;;;;;;;5070149;27;81955;-57
2022/12/21 11:36:54;;;;;;;1.80;0.80;;;;;;;;;;5066804;27;82707;-56
2022/12/21 11:39:24;;;;;;;0.97;0.97;;;;;;;;;;5066242;27;83030;-55
2022/12/21 11:41:53;;;;;;;1.17;0.80;;;;;;;;;;5065949;27;82826;-55
2022/12/21 11:44:24;;;;;;;2.10;1.07;;;;;;;;;;5066379;27;81766;-56
2022/12/21 11:46:54;;;;;;;1.70;1.10;;;;;;;;;;5066426;27;83884;-55
2022/12/21 11:49:38;;;;;;;1.97;0.80;;;;;;;;;;5067319;27;83133;-55
2022/12/21 11:52:08;;;;;;;1.57;1.10;;;;;;;;;;5062886;27;85421;-55
2022/12/21 11:54:40;;;;;;;1.23;1.13;;;;;;;;;;5064370;27;82889;-56
2022/12/21 11:57:11;;;;;;;1.20;1.10;;;;;;;;;;5065343;27;83890;-56
2022/12/21 11:59:43;;;;;;;2.73;1.30;;;;;;;;;;5065430;27;84052;-56
2022/12/21 12:02:20;;;;;;;0.97;0.70;;;;;;;;;;5065952;27;82559;-55
2022/12/21 12:04:53;;;;;;;0.90;0.90;;;;;;;;;;5065511;27;82004;-55
2022/12/21 12:07:29;;;;;;;0.87;0.87;;;;;;;;;;5065693;27;82617;-56
2022/12/21 12:10:18;;;;;;;1.23;0.90;;;;;;;;;;5065568;27;83037;-56
2022/12/21 12:12:49;;;;;;;3.40;0.80;;;;;;;;;;5062024;27;82685;-56
2022/12/21 12:15:25;;;;;;;1.50;1.00;;;;;;;;;;5065779;27;81880;-56
2022/12/21 12:17:57;;;;;;;1.03;1.00;;;;;;;;;;5064367;27;81958;-55
2022/12/21 12:20:32;;;;;;;2.27;0.90;;;;;;;;;;5064698;27;84100;-56
2022/12/21 12:23:02;;;;;;;2.40;1.43;;;;;;;;;;5064266;27;83801;-56
2022/12/21 12:25:40;;;;;;;2.53;1.33;;;;;;;;;;5064686;27;81961;-56
2022/12/21 12:28:21;;;;;;;3.80;1.70;;;;;;;;;;5076503;27;82725;-56
2022/12/21 12:30:53;;;;;;;2.37;2.17;;;;;;;;;;5065639;27;82884;-56
2022/12/21 12:33:30;;;;;;;3.63;2.10;;;;;;;;;;5065002;27;82727;-56
2022/12/21 12:36:02;;;;;;;2.80;2.20;;;;;;;;;;5066707;27;81976;-56
2022/12/21 12:38:33;;;;;;;2.77;2.57;;;;;;;;;;5065469;27;82936;-56
2022/12/21 12:41:08;;;;;;;3.83;3.20;;;;;;;;;;5065333;27;81966;-56
2022/12/21 12:43:40;;;;;;;2.43;2.23;;;;;;;;;;5064977;27;81938;-56
2022/12/21 12:46:09;;;;;;;3.67;3.03;;;;;;;;;;5065018;27;82967;-55
2022/12/21 12:48:40;;;;;;;3.87;2.93;;;;;;;;;;5065062;27;83795;-55
2022/12/21 12:51:10;;;;;;;3.73;3.33;;;;;;;;;;5064752;27;83220;-56
2022/12/21 12:53:40;;;;;;;4.90;3.00;;;;;;;;;;5064743;27;83914;-56
2022/12/21 12:56:11;;;;;;;4.57;3.27;;;;;;;;;;5064954;27;81945;-56
2022/12/21 12:58:44;;;;;;;6.00;2.70;;;;;;;;;;5065085;27;84059;-55
2022/12/21 13:01:14;;;;;;;4.50;3.00;;;;;;;;;;5064801;27;84486;-56
2022/12/21 13:03:46;;;;;;;6.50;3.30;;;;;;;;;;5065191;27;82551;-55
2022/12/21 13:06:17;;;;;;;3.97;3.20;;;;;;;;;;5064586;27;81879;-56
2022/12/21 13:08:48;;;;;;;4.90;3.37;;;;;;;;;;5064400;27;82835;-56
2022/12/21 13:11:18;;;;;;;5.33;3.47;;;;;;;;;;5064029;27;84196;-56
2022/12/21 13:13:48;;;;;;;3.93;3.43;;;;;;;;;;5064826;27;83651;-56
2022/12/21 13:16:17;;;;;;;3.87;3.03;;;;;;;;;;5064917;27;82005;-55
2022/12/21 13:18:46;;;;;;;4.33;3.53;;;;;;;;;;5064906;27;81803;-55
2022/12/21 13:21:14;;;;;;;4.00;3.10;;;;;;;;;;5064463;27;82877;-55
2022/12/21 13:23:45;;;;;;;3.80;2.87;;;;;;;;;;5064080;27;82687;-55
2022/12/21 13:26:14;;;;;;;5.03;3.50;;;;;;;;;;5063907;27;82356;-55
2022/12/21 13:28:51;;;;;;;4.43;3.47;;;;;;;;;;5064512;27;82876;-55
2022/12/21 13:31:20;;;;;;;3.60;2.93;;;;;;;;;;5064509;27;83065;-55
2022/12/21 13:33:50;;;;;;;4.70;3.17;;;;;;;;;;5064457;27;82745;-55
2022/12/21 13:36:18;;;;;;;4.33;3.07;;;;;;;;;;5064095;27;82877;-55
2022/12/21 13:38:49;;;;;;;4.03;2.77;;;;;;;;;;5079643;27;83666;-55
2022/12/21 13:41:18;;;;;;;5.30;3.57;;;;;;;;;;5070459;27;82873;-56
2022/12/21 13:43:48;;;;;;;4.43;3.13;;;;;;;;;;5063828;27;82905;-55
2022/12/21 13:46:38;;;;;;;4.60;3.40;;;;;;;;;;5064144;27;81958;-55
2022/12/21 13:49:11;;;;;;;4.00;3.40;;;;;;;;;;5063521;27;83886;-55
2022/12/21 13:51:41;;;;;;;6.10;2.97;;;;;;;;;;5064059;27;84160;-55
2022/12/21 13:54:11;;;;;;;6.50;3.47;;;;;;;;;;5064791;27;82558;-55
2022/12/21 13:56:43;;;;;;;4.73;3.27;;;;;;;;;;5064626;27;81908;-55
2022/12/21 13:59:13;;;;;;;5.13;2.90;;;;;;;;;;5063990;27;83934;-55
2022/12/21 14:01:45;;;;;;;4.63;3.20;;;;;;;;;;5063443;27;85131;-55
2022/12/21 14:04:15;;;;;;;3.17;2.87;;;;;;;;;;5063909;27;84760;-55
2022/12/21 14:07:05;;;;;;;3.43;2.87;;;;;;;;;;5064180;27;82978;-55
2022/12/21 14:09:36;;;;;;;2.80;2.40;;;;;;;;;;5030387;27;83882;-56
2022/12/21 14:12:28;;;;;;;3.53;2.20;;;;;;;;;;5063734;27;81700;-55
2022/12/21 14:15:18;;;;;;;3.70;2.63;;;;;;;;;;5063528;27;82808;-56
2022/12/21 14:17:48;;;;;;;4.10;2.60;;;;;;;;;;5067674;27;82001;-56
2022/12/21 14:20:21;;;;;;;2.57;2.13;;;;;;;;;;5069693;27;84092;-56
2022/12/21 14:22:49;;;;;;;3.33;2.53;;;;;;;;;;5071778;27;84165;-56
2022/12/21 14:25:18;;;;;;;5.83;2.83;;;;;;;;;;5075061;27;83214;-55
2022/12/21 14:28:01;;;;;;;2.47;1.87;;;;;;;;;;5063376;27;83033;-56
2022/12/21 14:30:30;;;;;;;3.27;2.57;;;;;;;;;;5063875;27;83961;-56
2022/12/21 14:33:04;;;;;;;4.10;2.33;;;;;;;;;;5063203;27;83005;-55
2022/12/21 14:35:33;;;;;;;2.47;2.20;;;;;;;;;;5063661;27;82953;-55
2022/12/21 14:38:20;;;;;;;2.93;2.70;;;;;;;;;;5062654;27;82057;-56
2022/12/21 14:40:58;;;;;;;4.27;2.20;;;;;;;;;;5054544;27;82837;-56
2022/12/21 14:43:26;;;;;;;2.20;1.97;;;;;;;;;;5066222;27;82822;-55
2022/12/21 14:45:55;;;;;;;2.00;1.67;;;;;;;;;;5066553;27;82425;-56
2022/12/21 14:48:39;;;;;;;5.97;2.27;;;;;;;;;;5066366;27;81954;-56
2022/12/21 14:51:10;;;;;;;3.87;2.93;;;;;;;;;;5071028;27;82767;-55
2022/12/21 14:53:39;;;;;;;4.23;3.30;;;;;;;;;;5066833;27;85058;-55
2022/12/21 14:56:09;;;;;;;3.67;2.90;;;;;;;;;;5065702;27;83941;-56
2022/12/21 14:58:38;;;;;;;4.07;2.80;;;;;;;;;;5065869;27;82471;-55
2022/12/21 15:01:21;;;;;;;3.97;3.03;;;;;;;;;;5065586;27;83007;-55
2022/12/21 15:03:51;;;;;;;3.77;3.07;;;;;;;;;;5065533;27;83653;-55
2022/12/21 15:06:24;;;;;;;5.10;2.63;;;;;;;;;;5065645;27;82669;-55
2022/12/21 15:08:53;;;;;;;5.27;3.30;;;;;;;;;;5065782;27;81904;-55
2022/12/21 15:11:23;;;;;;;3.60;2.63;;;;;;;;;;5065866;27;82983;-55
2022/12/21 15:13:52;;;;;;;3.83;2.77;;;;;;;;;;5065591;27;83242;-55
2022/12/21 15:16:21;;;;;;;3.00;2.37;;;;;;;;;;5065496;27;83862;-55